Depesza METAR lotniska Warszawa-Okęcie

METAR = EPWA 190530Z 13005KT CAVOK 11/09 Q1020 NOSIG

STACJA......... EPWA - Warszawa-Okęcie (WAW)
POMIAR......... Fri Sep 19, 07:30 CEST
TERAZ.......... Fri Sep 19, 07:47 CEST
CZAS........... 17 min temu
WIATR.......... południowo wschodni (SE) z prędkością 9 km/h
WIDZIALNOŚĆ.. powyżej 10 kilometrów
CHMURY......... bezchmurne niebo
TEMPERATURA.... 11°C
T.PUNKTU ROSY.. 9°C
WILGOTNOŚĆ... 88%
CIŚNIENIE..... 1020 hPa
PROGNOZA....... bez nagłych zmian w ciągu 2h

Depesza METAR lotniska Kraków-Balice

METAR = EPKK 190530Z 06003KT 8000 NSC 11/10 Q1020

STACJA......... EPKK - Kraków-Balice (KRK)
POMIAR......... Fri Sep 19, 07:30 CEST
TERAZ.......... Fri Sep 19, 07:47 CEST
CZAS........... 17 min temu
WIATR.......... wschodni północno-wschodni (ENE) z prędkością 6 km/h
WIDZIALNOŚĆ.. 8000 metrów
CHMURY......... brak istotnych chmur
TEMPERATURA.... 11°C
T.PUNKTU ROSY.. 10°C
WILGOTNOŚĆ... 94%
CIŚNIENIE..... 1020 hPa

Depesza METAR lotniska Łódź-Lublinek

METAR = EPLL 190530Z 11005KT CAVOK 12/10 Q1019

STACJA......... EPLL - Łódź-Lublinek (LCJ)
POMIAR......... Fri Sep 19, 07:30 CEST
TERAZ.......... Fri Sep 19, 07:47 CEST
CZAS........... 17 min temu
WIATR.......... wschodni południowo-wschodni (ESE) z prędkością 9 km/h
WIDZIALNOŚĆ.. powyżej 10 kilometrów
CHMURY......... bezchmurne niebo
TEMPERATURA.... 12°C
T.PUNKTU ROSY.. 10°C
WILGOTNOŚĆ... 88%
CIŚNIENIE..... 1019 hPa

Depesza METAR lotniska Wrocław-Strachowice

METAR = EPWR 190530Z 13007KT CAVOK 14/12 Q1016

STACJA......... EPWR - Wrocław-Strachowice (WRO)
POMIAR......... Fri Sep 19, 07:30 CEST
TERAZ.......... Fri Sep 19, 07:47 CEST
CZAS........... 17 min temu
WIATR.......... południowo wschodni (SE) z prędkością 13 km/h
WIDZIALNOŚĆ.. powyżej 10 kilometrów
CHMURY......... bezchmurne niebo
TEMPERATURA.... 14°C
T.PUNKTU ROSY.. 12°C
WILGOTNOŚĆ... 88%
CIŚNIENIE..... 1016 hPa

Depesza METAR lotniska Katowice-Pyrzowice

METAR = EPKT 190530Z 12005KT CAVOK 12/09 Q1019

STACJA......... EPKT - Katowice-Pyrzowice (KTW)
POMIAR......... Fri Sep 19, 07:30 CEST
TERAZ.......... Fri Sep 19, 07:47 CEST
CZAS........... 17 min temu
WIATR.......... wschodni południowo-wschodni (ESE) z prędkością 9 km/h
WIDZIALNOŚĆ.. powyżej 10 kilometrów
CHMURY......... bezchmurne niebo
TEMPERATURA.... 12°C
T.PUNKTU ROSY.. 9°C
WILGOTNOŚĆ... 82%
CIŚNIENIE..... 1019 hPa

Depesza METAR lotniska Gdańsk

METAR = EPGD 190530Z 14004KT CAVOK 12/09 Q1018

STACJA......... EPGD - Gdańsk im. Lecha Wałęsy (GDN)
POMIAR......... Fri Sep 19, 07:30 CEST
TERAZ.......... Fri Sep 19, 07:47 CEST
CZAS........... 17 min temu
WIATR.......... południowo wschodni (SE) z prędkością 7 km/h
WIDZIALNOŚĆ.. powyżej 10 kilometrów
CHMURY......... bezchmurne niebo
TEMPERATURA.... 12°C
T.PUNKTU ROSY.. 9°C
WILGOTNOŚĆ... 82%
CIŚNIENIE..... 1018 hPa

Depesza METAR lotniska Poznań-Ławica

METAR = EPPO 190530Z 13004KT CAVOK 14/11 Q1016

STACJA......... EPPO - Poznań-Ławica (POZ)
POMIAR......... Fri Sep 19, 07:30 CEST
TERAZ.......... Fri Sep 19, 07:47 CEST
CZAS........... 17 min temu
WIATR.......... południowo wschodni (SE) z prędkością 7 km/h
WIDZIALNOŚĆ.. powyżej 10 kilometrów
CHMURY......... bezchmurne niebo
TEMPERATURA.... 14°C
T.PUNKTU ROSY.. 11°C
WILGOTNOŚĆ... 82%
CIŚNIENIE..... 1016 hPa

Depesza METAR lotniska Rzeszów-Jasionka

METAR = EPRZ 190530Z 10005KT 4000 BR NSC 08/08 Q1021

STACJA......... EPRZ - Rzeszów-Jasionka (RZE)
POMIAR......... Fri Sep 19, 07:30 CEST
TERAZ.......... Fri Sep 19, 07:47 CEST
CZAS........... 17 min temu
WIATR.......... wschodni (E) z prędkością 9 km/h
WIDZIALNOŚĆ.. 4000 metrów
WARUNKI........ zamglenie 
CHMURY......... brak istotnych chmur
TEMPERATURA.... 8°C
T.PUNKTU ROSY.. 8°C
WILGOTNOŚĆ... 100%
T.ODCZUWALNA... 6°C
CIŚNIENIE..... 1021 hPa

Depesza METAR lotniska Szczecin-Goleniów

METAR = EPSC 190530Z 11006KT CAVOK 13/11 Q1015

STACJA......... EPSC - Szczecin-Goleniów (SZZ)
POMIAR......... Fri Sep 19, 07:30 CEST
TERAZ.......... Fri Sep 19, 07:47 CEST
CZAS........... 17 min temu
WIATR.......... wschodni południowo-wschodni (ESE) z prędkością 11 km/h
WIDZIALNOŚĆ.. powyżej 10 kilometrów
CHMURY......... bezchmurne niebo
TEMPERATURA.... 13°C
T.PUNKTU ROSY.. 11°C
WILGOTNOŚĆ... 88%
CIŚNIENIE..... 1015 hPa

Depesza METAR lotniska Lublin-Świdnik

METAR = EPLB 221500Z VRB01KT 9999 FEW020 BKN080 26/23 Q1009 NOSIG

STACJA......... EPLB - Lublin-Świdnik (LUZ)
POMIAR......... Mon Aug 22, 17:00 CEST
TERAZ.......... Fri Sep 19, 07:47 CEST
CZAS........... 26966:47 godz temu
WIATR.......... zmienny z prędkością 2 km/h
WIDZIALNOŚĆ.. powyżej 10 kilometrów
CHMURY......... zachmurzenie średnie (5/8-7/8)
TEMPERATURA.... 26°C
T.PUNKTU ROSY.. 23°C
WILGOTNOŚĆ... 84%
CIŚNIENIE..... 1009 hPa
PROGNOZA....... bez nagłych zmian w ciągu 2h

Sprawdź też: prognoza pogody dla miast w Polsce!